sensor_id;sensor_type;location;lat;lon;timestamp;P1;durP1;ratioP1;P2;durP2;ratioP2
37655;SDS011;23498;50.958;3.124;2022-10-15T00:01:44;21.27;;;16.05;;
37655;SDS011;23498;50.958;3.124;2022-10-15T00:04:10;20.55;;;15.20;;
37655;SDS011;23498;50.958;3.124;2022-10-15T00:06:36;18.27;;;13.75;;
37655;SDS011;23498;50.958;3.124;2022-10-15T00:09:02;20.25;;;15.07;;
37655;SDS011;23498;50.958;3.124;2022-10-15T00:11:48;17.75;;;12.82;;
37655;SDS011;23498;50.958;3.124;2022-10-15T00:14:14;16.65;;;12.52;;
37655;SDS011;23498;50.958;3.124;2022-10-15T00:16:40;14.60;;;11.27;;
37655;SDS011;23498;50.958;3.124;2022-10-15T00:19:06;14.15;;;11.20;;
37655;SDS011;23498;50.958;3.124;2022-10-15T00:21:40;16.20;;;10.25;;
37655;SDS011;23498;50.958;3.124;2022-10-15T00:24:06;13.60;;;9.73;;
37655;SDS011;23498;50.958;3.124;2022-10-15T00:26:32;11.70;;;9.30;;
37655;SDS011;23498;50.958;3.124;2022-10-15T00:28:59;11.43;;;8.70;;
37655;SDS011;23498;50.958;3.124;2022-10-15T00:31:26;11.95;;;7.95;;
37655;SDS011;23498;50.958;3.124;2022-10-15T00:33:53;10.13;;;7.70;;
37655;SDS011;23498;50.958;3.124;2022-10-15T00:36:30;12.88;;;7.63;;
37655;SDS011;23498;50.958;3.124;2022-10-15T00:38:57;8.30;;;6.68;;
37655;SDS011;23498;50.958;3.124;2022-10-15T00:43:53;9.32;;;7.10;;
37655;SDS011;23498;50.958;3.124;2022-10-15T00:46:39;9.23;;;7.13;;
37655;SDS011;23498;50.958;3.124;2022-10-15T00:49:17;9.32;;;7.22;;
37655;SDS011;23498;50.958;3.124;2022-10-15T00:54:30;12.40;;;9.05;;
37655;SDS011;23498;50.958;3.124;2022-10-15T00:56:56;13.68;;;9.50;;
37655;SDS011;23498;50.958;3.124;2022-10-15T00:59:23;14.90;;;11.15;;
37655;SDS011;23498;50.958;3.124;2022-10-15T01:01:49;13.13;;;10.57;;
37655;SDS011;23498;50.958;3.124;2022-10-15T01:04:16;15.20;;;11.77;;
37655;SDS011;23498;50.958;3.124;2022-10-15T01:06:43;18.52;;;12.70;;
37655;SDS011;23498;50.958;3.124;2022-10-15T01:09:09;17.52;;;13.20;;
37655;SDS011;23498;50.958;3.124;2022-10-15T01:11:43;18.95;;;13.98;;
37655;SDS011;23498;50.958;3.124;2022-10-15T01:22:03;19.27;;;14.73;;
37655;SDS011;23498;50.958;3.124;2022-10-15T01:32:37;20.83;;;14.98;;
37655;SDS011;23498;50.958;3.124;2022-10-15T01:37:59;19.73;;;15.10;;
37655;SDS011;23498;50.958;3.124;2022-10-15T01:40:57;21.08;;;15.68;;
37655;SDS011;23498;50.958;3.124;2022-10-15T01:43:55;22.73;;;16.08;;
37655;SDS011;23498;50.958;3.124;2022-10-15T01:46:23;21.80;;;15.45;;
37655;SDS011;23498;50.958;3.124;2022-10-15T01:49:08;20.20;;;15.57;;
37655;SDS011;23498;50.958;3.124;2022-10-15T01:51:36;24.10;;;15.68;;
37655;SDS011;23498;50.958;3.124;2022-10-15T01:54:03;21.50;;;15.85;;
37655;SDS011;23498;50.958;3.124;2022-10-15T01:56:30;23.55;;;16.70;;
37655;SDS011;23498;50.958;3.124;2022-10-15T01:58:57;23.33;;;16.45;;
37655;SDS011;23498;50.958;3.124;2022-10-15T02:01:23;22.45;;;16.48;;
37655;SDS011;23498;50.958;3.124;2022-10-15T02:03:49;22.80;;;16.15;;
37655;SDS011;23498;50.958;3.124;2022-10-15T02:11:29;22.30;;;16.55;;
37655;SDS011;23498;50.958;3.124;2022-10-15T02:14:21;19.70;;;15.13;;
37655;SDS011;23498;50.958;3.124;2022-10-15T02:17:08;24.02;;;16.52;;
37655;SDS011;23498;50.958;3.124;2022-10-15T02:22:21;20.92;;;15.30;;
37655;SDS011;23498;50.958;3.124;2022-10-15T02:25:09;20.40;;;15.40;;
37655;SDS011;23498;50.958;3.124;2022-10-15T02:27:48;22.02;;;16.15;;
37655;SDS011;23498;50.958;3.124;2022-10-15T02:30:16;21.67;;;16.15;;
37655;SDS011;23498;50.958;3.124;2022-10-15T02:33:02;21.73;;;15.95;;
37655;SDS011;23498;50.958;3.124;2022-10-15T02:35:28;21.15;;;15.55;;
37655;SDS011;23498;50.958;3.124;2022-10-15T02:37:54;21.02;;;15.60;;
37655;SDS011;23498;50.958;3.124;2022-10-15T02:40:23;21.75;;;15.27;;
37655;SDS011;23498;50.958;3.124;2022-10-15T02:42:54;20.42;;;14.90;;
37655;SDS011;23498;50.958;3.124;2022-10-15T02:45:20;18.35;;;14.15;;
37655;SDS011;23498;50.958;3.124;2022-10-15T02:47:46;18.83;;;14.32;;
37655;SDS011;23498;50.958;3.124;2022-10-15T02:50:12;18.38;;;14.63;;
37655;SDS011;23498;50.958;3.124;2022-10-15T02:52:46;21.58;;;14.88;;
37655;SDS011;23498;50.958;3.124;2022-10-15T02:55:12;17.52;;;13.02;;
37655;SDS011;23498;50.958;3.124;2022-10-15T02:57:38;20.45;;;14.30;;
37655;SDS011;23498;50.958;3.124;2022-10-15T03:00:08;18.80;;;13.65;;
37655;SDS011;23498;50.958;3.124;2022-10-15T03:02:34;19.15;;;13.93;;
37655;SDS011;23498;50.958;3.124;2022-10-15T03:05:00;20.08;;;15.18;;
37655;SDS011;23498;50.958;3.124;2022-10-15T03:07:26;20.20;;;14.75;;
37655;SDS011;23498;50.958;3.124;2022-10-15T03:09:52;20.42;;;14.07;;
37655;SDS011;23498;50.958;3.124;2022-10-15T03:12:18;20.10;;;14.63;;
37655;SDS011;23498;50.958;3.124;2022-10-15T03:15:02;18.52;;;13.68;;
37655;SDS011;23498;50.958;3.124;2022-10-15T03:17:28;21.70;;;14.45;;
37655;SDS011;23498;50.958;3.124;2022-10-15T03:19:54;18.80;;;13.93;;
37655;SDS011;23498;50.958;3.124;2022-10-15T03:22:20;18.95;;;13.80;;
37655;SDS011;23498;50.958;3.124;2022-10-15T03:24:48;20.55;;;14.70;;
37655;SDS011;23498;50.958;3.124;2022-10-15T03:27:14;19.70;;;14.40;;
37655;SDS011;23498;50.958;3.124;2022-10-15T03:29:40;19.30;;;13.23;;
37655;SDS011;23498;50.958;3.124;2022-10-15T03:32:06;18.30;;;13.82;;
37655;SDS011;23498;50.958;3.124;2022-10-15T03:34:32;18.00;;;13.43;;
37655;SDS011;23498;50.958;3.124;2022-10-15T03:36:58;19.25;;;13.60;;
37655;SDS011;23498;50.958;3.124;2022-10-15T03:39:24;19.85;;;13.68;;
37655;SDS011;23498;50.958;3.124;2022-10-15T03:41:53;17.90;;;12.75;;
37655;SDS011;23498;50.958;3.124;2022-10-15T03:44:19;17.83;;;13.07;;
37655;SDS011;23498;50.958;3.124;2022-10-15T03:47:05;20.20;;;12.95;;
37655;SDS011;23498;50.958;3.124;2022-10-15T03:49:31;17.35;;;11.88;;
37655;SDS011;23498;50.958;3.124;2022-10-15T03:51:57;18.27;;;12.20;;
37655;SDS011;23498;50.958;3.124;2022-10-15T03:54:23;15.02;;;11.40;;
37655;SDS011;23498;50.958;3.124;2022-10-15T03:56:49;18.05;;;12.32;;
37655;SDS011;23498;50.958;3.124;2022-10-15T03:59:19;16.27;;;11.48;;
37655;SDS011;23498;50.958;3.124;2022-10-15T04:01:45;13.88;;;10.27;;
37655;SDS011;23498;50.958;3.124;2022-10-15T04:04:11;17.20;;;12.65;;
37655;SDS011;23498;50.958;3.124;2022-10-15T04:06:57;16.75;;;11.52;;
37655;SDS011;23498;50.958;3.124;2022-10-15T04:09:23;16.45;;;12.52;;
37655;SDS011;23498;50.958;3.124;2022-10-15T04:11:49;18.83;;;13.32;;
37655;SDS011;23498;50.958;3.124;2022-10-15T04:14:15;18.65;;;13.15;;
37655;SDS011;23498;50.958;3.124;2022-10-15T04:16:41;16.80;;;12.57;;
37655;SDS011;23498;50.958;3.124;2022-10-15T04:19:07;19.13;;;12.90;;
37655;SDS011;23498;50.958;3.124;2022-10-15T04:21:36;16.10;;;11.88;;
37655;SDS011;23498;50.958;3.124;2022-10-15T04:24:02;19.13;;;13.43;;
37655;SDS011;23498;50.958;3.124;2022-10-15T04:26:28;18.45;;;13.57;;
37655;SDS011;23498;50.958;3.124;2022-10-15T04:28:55;17.50;;;12.75;;
37655;SDS011;23498;50.958;3.124;2022-10-15T04:31:21;18.25;;;12.88;;
37655;SDS011;23498;50.958;3.124;2022-10-15T04:33:47;18.45;;;12.88;;
37655;SDS011;23498;50.958;3.124;2022-10-15T04:36:13;17.50;;;13.07;;
37655;SDS011;23498;50.958;3.124;2022-10-15T04:38:40;18.17;;;13.05;;
37655;SDS011;23498;50.958;3.124;2022-10-15T04:41:16;17.92;;;12.30;;
37655;SDS011;23498;50.958;3.124;2022-10-15T04:43:42;17.23;;;12.27;;
37655;SDS011;23498;50.958;3.124;2022-10-15T04:46:08;17.75;;;12.65;;
37655;SDS011;23498;50.958;3.124;2022-10-15T04:48:35;20.08;;;13.65;;
37655;SDS011;23498;50.958;3.124;2022-10-15T04:51:17;17.20;;;12.68;;
37655;SDS011;23498;50.958;3.124;2022-10-15T04:53:51;18.83;;;14.27;;
37655;SDS011;23498;50.958;3.124;2022-10-15T04:56:18;19.48;;;14.65;;
37655;SDS011;23498;50.958;3.124;2022-10-15T04:58:45;20.08;;;15.07;;
37655;SDS011;23498;50.958;3.124;2022-10-15T05:01:12;21.10;;;15.32;;
37655;SDS011;23498;50.958;3.124;2022-10-15T05:03:40;19.02;;;14.75;;
37655;SDS011;23498;50.958;3.124;2022-10-15T05:06:07;20.70;;;15.02;;
37655;SDS011;23498;50.958;3.124;2022-10-15T05:08:41;20.25;;;15.15;;
37655;SDS011;23498;50.958;3.124;2022-10-15T05:11:09;18.13;;;13.82;;
37655;SDS011;23498;50.958;3.124;2022-10-15T05:13:35;20.75;;;14.05;;
37655;SDS011;23498;50.958;3.124;2022-10-15T05:18:55;19.17;;;13.73;;
37655;SDS011;23498;50.958;3.124;2022-10-15T05:21:21;18.00;;;13.70;;
37655;SDS011;23498;50.958;3.124;2022-10-15T05:24:07;19.42;;;13.90;;
37655;SDS011;23498;50.958;3.124;2022-10-15T05:26:33;18.38;;;13.02;;
37655;SDS011;23498;50.958;3.124;2022-10-15T05:29:00;20.23;;;13.40;;
37655;SDS011;23498;50.958;3.124;2022-10-15T05:31:29;17.98;;;12.93;;
37655;SDS011;23498;50.958;3.124;2022-10-15T05:33:55;17.52;;;12.50;;
37655;SDS011;23498;50.958;3.124;2022-10-15T05:36:23;19.67;;;12.60;;
37655;SDS011;23498;50.958;3.124;2022-10-15T05:39:02;15.98;;;11.13;;
37655;SDS011;23498;50.958;3.124;2022-10-15T05:41:29;18.67;;;12.82;;
37655;SDS011;23498;50.958;3.124;2022-10-15T05:43:55;17.58;;;11.43;;
37655;SDS011;23498;50.958;3.124;2022-10-15T05:46:22;17.17;;;11.73;;
37655;SDS011;23498;50.958;3.124;2022-10-15T05:48:48;19.30;;;12.27;;
37655;SDS011;23498;50.958;3.124;2022-10-15T05:51:15;18.38;;;12.15;;
37655;SDS011;23498;50.958;3.124;2022-10-15T05:53:41;15.57;;;10.80;;
37655;SDS011;23498;50.958;3.124;2022-10-15T05:56:08;18.27;;;12.07;;
37655;SDS011;23498;50.958;3.124;2022-10-15T05:58:34;18.58;;;11.63;;
37655;SDS011;23498;50.958;3.124;2022-10-15T06:01:01;16.27;;;11.43;;
37655;SDS011;23498;50.958;3.124;2022-10-15T06:03:28;16.30;;;11.05;;
37655;SDS011;23498;50.958;3.124;2022-10-15T06:05:54;17.80;;;11.93;;
37655;SDS011;23498;50.958;3.124;2022-10-15T06:08:21;19.95;;;12.57;;
37655;SDS011;23498;50.958;3.124;2022-10-15T06:10:47;21.02;;;13.88;;
37655;SDS011;23498;50.958;3.124;2022-10-15T06:13:13;22.20;;;15.00;;
37655;SDS011;23498;50.958;3.124;2022-10-15T06:15:44;26.05;;;16.83;;
37655;SDS011;23498;50.958;3.124;2022-10-15T06:18:13;24.15;;;16.45;;
37655;SDS011;23498;50.958;3.124;2022-10-15T06:20:59;23.67;;;16.00;;
37655;SDS011;23498;50.958;3.124;2022-10-15T06:23:40;24.42;;;16.48;;
37655;SDS011;23498;50.958;3.124;2022-10-15T06:26:07;23.42;;;15.82;;
37655;SDS011;23498;50.958;3.124;2022-10-15T06:28:34;25.17;;;17.50;;
37655;SDS011;23498;50.958;3.124;2022-10-15T06:31:19;23.45;;;15.82;;
37655;SDS011;23498;50.958;3.124;2022-10-15T06:33:45;28.70;;;17.80;;
37655;SDS011;23498;50.958;3.124;2022-10-15T06:36:11;31.13;;;19.15;;
37655;SDS011;23498;50.958;3.124;2022-10-15T06:38:38;27.65;;;18.63;;
37655;SDS011;23498;50.958;3.124;2022-10-15T06:41:04;30.33;;;18.65;;
37655;SDS011;23498;50.958;3.124;2022-10-15T06:43:30;27.70;;;18.25;;
37655;SDS011;23498;50.958;3.124;2022-10-15T06:45:57;29.08;;;17.40;;
37655;SDS011;23498;50.958;3.124;2022-10-15T06:48:23;29.88;;;19.40;;
37655;SDS011;23498;50.958;3.124;2022-10-15T06:50:49;33.67;;;19.77;;
37655;SDS011;23498;50.958;3.124;2022-10-15T06:53:15;33.47;;;20.15;;
37655;SDS011;23498;50.958;3.124;2022-10-15T06:55:41;28.63;;;19.17;;
37655;SDS011;23498;50.958;3.124;2022-10-15T06:58:08;27.73;;;17.33;;
37655;SDS011;23498;50.958;3.124;2022-10-15T07:00:34;28.08;;;18.60;;
37655;SDS011;23498;50.958;3.124;2022-10-15T07:03:04;30.33;;;19.05;;
37655;SDS011;23498;50.958;3.124;2022-10-15T07:05:30;30.45;;;18.25;;
37655;SDS011;23498;50.958;3.124;2022-10-15T07:07:57;29.65;;;17.98;;
37655;SDS011;23498;50.958;3.124;2022-10-15T07:10:38;28.00;;;16.83;;
37655;SDS011;23498;50.958;3.124;2022-10-15T07:13:04;27.65;;;16.88;;
37655;SDS011;23498;50.958;3.124;2022-10-15T07:15:30;27.95;;;17.30;;
37655;SDS011;23498;50.958;3.124;2022-10-15T07:17:57;32.60;;;19.20;;
37655;SDS011;23498;50.958;3.124;2022-10-15T07:20:28;25.65;;;16.15;;
37655;SDS011;23498;50.958;3.124;2022-10-15T07:22:59;27.67;;;17.38;;
37655;SDS011;23498;50.958;3.124;2022-10-15T07:25:31;27.33;;;17.27;;
37655;SDS011;23498;50.958;3.124;2022-10-15T07:28:22;24.48;;;15.75;;
37655;SDS011;23498;50.958;3.124;2022-10-15T07:30:59;27.75;;;16.67;;
37655;SDS011;23498;50.958;3.124;2022-10-15T07:33:41;24.17;;;15.30;;
37655;SDS011;23498;50.958;3.124;2022-10-15T07:36:08;26.80;;;14.88;;
37655;SDS011;23498;50.958;3.124;2022-10-15T07:38:48;22.83;;;14.98;;
37655;SDS011;23498;50.958;3.124;2022-10-15T07:41:14;25.45;;;15.98;;
37655;SDS011;23498;50.958;3.124;2022-10-15T07:43:44;25.77;;;17.05;;
37655;SDS011;23498;50.958;3.124;2022-10-15T07:46:10;26.10;;;17.23;;
37655;SDS011;23498;50.958;3.124;2022-10-15T07:48:36;25.42;;;17.15;;
37655;SDS011;23498;50.958;3.124;2022-10-15T07:51:05;23.30;;;15.35;;
37655;SDS011;23498;50.958;3.124;2022-10-15T07:53:32;19.83;;;14.07;;
37655;SDS011;23498;50.958;3.124;2022-10-15T07:55:59;19.92;;;12.68;;
37655;SDS011;23498;50.958;3.124;2022-10-15T07:58:25;18.08;;;10.82;;
37655;SDS011;23498;50.958;3.124;2022-10-15T08:00:54;19.08;;;10.90;;
37655;SDS011;23498;50.958;3.124;2022-10-15T08:03:20;18.27;;;10.40;;
37655;SDS011;23498;50.958;3.124;2022-10-15T08:05:47;19.48;;;9.95;;
37655;SDS011;23498;50.958;3.124;2022-10-15T08:08:17;15.88;;;8.93;;
37655;SDS011;23498;50.958;3.124;2022-10-15T08:10:43;16.95;;;9.73;;
37655;SDS011;23498;50.958;3.124;2022-10-15T08:13:09;15.48;;;8.52;;
37655;SDS011;23498;50.958;3.124;2022-10-15T08:15:37;15.55;;;8.98;;
37655;SDS011;23498;50.958;3.124;2022-10-15T08:18:03;12.63;;;7.97;;
37655;SDS011;23498;50.958;3.124;2022-10-15T08:20:29;12.00;;;7.80;;
37655;SDS011;23498;50.958;3.124;2022-10-15T08:22:55;14.07;;;7.68;;
37655;SDS011;23498;50.958;3.124;2022-10-15T08:25:21;11.95;;;7.97;;
37655;SDS011;23498;50.958;3.124;2022-10-15T08:27:47;11.50;;;8.23;;
37655;SDS011;23498;50.958;3.124;2022-10-15T08:30:13;13.55;;;8.25;;
37655;SDS011;23498;50.958;3.124;2022-10-15T08:32:39;11.80;;;8.15;;
37655;SDS011;23498;50.958;3.124;2022-10-15T08:35:05;12.30;;;8.45;;
37655;SDS011;23498;50.958;3.124;2022-10-15T08:37:31;13.27;;;8.38;;
37655;SDS011;23498;50.958;3.124;2022-10-15T08:39:57;12.07;;;8.02;;
37655;SDS011;23498;50.958;3.124;2022-10-15T08:44:58;11.88;;;8.50;;
37655;SDS011;23498;50.958;3.124;2022-10-15T08:47:28;13.70;;;8.90;;
37655;SDS011;23498;50.958;3.124;2022-10-15T08:49:56;12.35;;;8.43;;
37655;SDS011;23498;50.958;3.124;2022-10-15T08:54:59;11.45;;;8.15;;
37655;SDS011;23498;50.958;3.124;2022-10-15T09:00:16;12.93;;;7.30;;
37655;SDS011;23498;50.958;3.124;2022-10-15T09:02:53;7.00;;;5.43;;
37655;SDS011;23498;50.958;3.124;2022-10-15T09:05:42;5.75;;;4.78;;
37655;SDS011;23498;50.958;3.124;2022-10-15T09:08:21;6.70;;;4.75;;
37655;SDS011;23498;50.958;3.124;2022-10-15T09:10:51;6.97;;;4.93;;
37655;SDS011;23498;50.958;3.124;2022-10-15T09:13:25;6.35;;;4.82;;
37655;SDS011;23498;50.958;3.124;2022-10-15T09:16:02;5.57;;;4.15;;
37655;SDS011;23498;50.958;3.124;2022-10-15T09:18:31;5.57;;;3.97;;
37655;SDS011;23498;50.958;3.124;2022-10-15T09:20:58;6.45;;;4.10;;
37655;SDS011;23498;50.958;3.124;2022-10-15T09:23:25;4.47;;;3.60;;
37655;SDS011;23498;50.958;3.124;2022-10-15T09:25:59;5.85;;;4.03;;
37655;SDS011;23498;50.958;3.124;2022-10-15T09:28:29;5.18;;;3.45;;
37655;SDS011;23498;50.958;3.124;2022-10-15T09:30:56;4.45;;;3.78;;
37655;SDS011;23498;50.958;3.124;2022-10-15T09:33:35;4.60;;;3.13;;
37655;SDS011;23498;50.958;3.124;2022-10-15T09:36:15;6.40;;;3.70;;
37655;SDS011;23498;50.958;3.124;2022-10-15T09:44:00;4.75;;;2.50;;
37655;SDS011;23498;50.958;3.124;2022-10-15T09:57:50;3.42;;;2.30;;
37655;SDS011;23498;50.958;3.124;2022-10-15T10:00:17;3.35;;;2.30;;
37655;SDS011;23498;50.958;3.124;2022-10-15T10:03:06;4.40;;;2.60;;
37655;SDS011;23498;50.958;3.124;2022-10-15T10:08:39;2.85;;;2.15;;
37655;SDS011;23498;50.958;3.124;2022-10-15T10:11:07;3.30;;;2.08;;
37655;SDS011;23498;50.958;3.124;2022-10-15T10:13:39;2.30;;;1.50;;
37655;SDS011;23498;50.958;3.124;2022-10-15T10:16:16;2.85;;;1.60;;
37655;SDS011;23498;50.958;3.124;2022-10-15T10:19:01;2.58;;;1.35;;
37655;SDS011;23498;50.958;3.124;2022-10-15T10:21:32;1.50;;;1.10;;
37655;SDS011;23498;50.958;3.124;2022-10-15T10:26:43;1.75;;;1.08;;
37655;SDS011;23498;50.958;3.124;2022-10-15T10:29:10;1.70;;;0.90;;
37655;SDS011;23498;50.958;3.124;2022-10-15T10:31:43;2.85;;;1.20;;
37655;SDS011;23498;50.958;3.124;2022-10-15T10:34:30;2.10;;;0.70;;
37655;SDS011;23498;50.958;3.124;2022-10-15T10:37:03;1.90;;;0.40;;
37655;SDS011;23498;50.958;3.124;2022-10-15T10:39:59;0.98;;;0.50;;
37655;SDS011;23498;50.958;3.124;2022-10-15T10:42:43;2.28;;;0.80;;
37655;SDS011;23498;50.958;3.124;2022-10-15T10:45:20;1.35;;;0.60;;
37655;SDS011;23498;50.958;3.124;2022-10-15T10:48:16;1.65;;;0.65;;
37655;SDS011;23498;50.958;3.124;2022-10-15T10:50:43;1.95;;;0.60;;
37655;SDS011;23498;50.958;3.124;2022-10-15T10:53:13;1.40;;;0.60;;
37655;SDS011;23498;50.958;3.124;2022-10-15T10:55:43;3.65;;;0.98;;
37655;SDS011;23498;50.958;3.124;2022-10-15T10:58:13;2.15;;;0.77;;
37655;SDS011;23498;50.958;3.124;2022-10-15T11:00:41;3.92;;;1.20;;
37655;SDS011;23498;50.958;3.124;2022-10-15T11:05:43;3.83;;;1.05;;
37655;SDS011;23498;50.958;3.124;2022-10-15T11:21:39;6.90;;;1.15;;
37655;SDS011;23498;50.958;3.124;2022-10-15T11:47:54;2.63;;;0.80;;
37655;SDS011;23498;50.958;3.124;2022-10-15T11:55:20;2.47;;;0.73;;
37655;SDS011;23498;50.958;3.124;2022-10-15T12:00:52;4.40;;;0.90;;
37655;SDS011;23498;50.958;3.124;2022-10-15T12:03:27;5.05;;;1.38;;
37655;SDS011;23498;50.958;3.124;2022-10-15T12:06:04;3.85;;;1.30;;
37655;SDS011;23498;50.958;3.124;2022-10-15T12:08:46;5.22;;;1.35;;
37655;SDS011;23498;50.958;3.124;2022-10-15T12:16:21;6.07;;;1.20;;
37655;SDS011;23498;50.958;3.124;2022-10-15T12:19:26;4.80;;;1.65;;
37655;SDS011;23498;50.958;3.124;2022-10-15T12:29:39;4.70;;;1.08;;
37655;SDS011;23498;50.958;3.124;2022-10-15T12:32:17;5.55;;;0.90;;
37655;SDS011;23498;50.958;3.124;2022-10-15T12:34:45;5.00;;;1.15;;
37655;SDS011;23498;50.958;3.124;2022-10-15T12:37:15;4.55;;;1.08;;
37655;SDS011;23498;50.958;3.124;2022-10-15T12:43:29;5.32;;;1.00;;
37655;SDS011;23498;50.958;3.124;2022-10-15T12:45:37;6.32;;;0.90;;
37655;SDS011;23498;50.958;3.124;2022-10-15T12:50:31;7.13;;;1.10;;
37655;SDS011;23498;50.958;3.124;2022-10-15T12:52:58;5.30;;;1.00;;
37655;SDS011;23498;50.958;3.124;2022-10-15T13:00:36;6.28;;;1.00;;
37655;SDS011;23498;50.958;3.124;2022-10-15T13:05:52;4.00;;;0.82;;
37655;SDS011;23498;50.958;3.124;2022-10-15T13:08:22;2.78;;;0.88;;
37655;SDS011;23498;50.958;3.124;2022-10-15T13:10:51;4.53;;;0.90;;
37655;SDS011;23498;50.958;3.124;2022-10-15T13:13:18;7.95;;;1.13;;
37655;SDS011;23498;50.958;3.124;2022-10-15T13:16:07;5.82;;;1.17;;
37655;SDS011;23498;50.958;3.124;2022-10-15T13:18:52;5.10;;;0.98;;
37655;SDS011;23498;50.958;3.124;2022-10-15T13:21:21;6.35;;;1.10;;
37655;SDS011;23498;50.958;3.124;2022-10-15T13:23:49;6.97;;;1.00;;
37655;SDS011;23498;50.958;3.124;2022-10-15T13:26:24;5.97;;;1.33;;
37655;SDS011;23498;50.958;3.124;2022-10-15T13:29:04;5.60;;;0.95;;
37655;SDS011;23498;50.958;3.124;2022-10-15T13:31:30;4.53;;;1.00;;
37655;SDS011;23498;50.958;3.124;2022-10-15T13:34:15;4.03;;;0.90;;
37655;SDS011;23498;50.958;3.124;2022-10-15T13:36:50;5.22;;;0.98;;
37655;SDS011;23498;50.958;3.124;2022-10-15T13:41:45;5.85;;;1.38;;
37655;SDS011;23498;50.958;3.124;2022-10-15T13:44:21;5.55;;;0.85;;
37655;SDS011;23498;50.958;3.124;2022-10-15T13:47:18;4.68;;;0.95;;
37655;SDS011;23498;50.958;3.124;2022-10-15T13:55:16;7.20;;;1.10;;
37655;SDS011;23498;50.958;3.124;2022-10-15T13:57:46;3.65;;;0.98;;
37655;SDS011;23498;50.958;3.124;2022-10-15T14:00:19;6.30;;;1.00;;
37655;SDS011;23498;50.958;3.124;2022-10-15T14:02:45;3.95;;;0.80;;
37655;SDS011;23498;50.958;3.124;2022-10-15T14:05:14;5.80;;;0.82;;
37655;SDS011;23498;50.958;3.124;2022-10-15T14:07:40;4.60;;;0.80;;
37655;SDS011;23498;50.958;3.124;2022-10-15T14:10:07;7.15;;;1.00;;
37655;SDS011;23498;50.958;3.124;2022-10-15T14:12:33;7.43;;;0.90;;
37655;SDS011;23498;50.958;3.124;2022-10-15T14:17:44;4.68;;;1.00;;
37655;SDS011;23498;50.958;3.124;2022-10-15T14:20:14;5.35;;;0.82;;
37655;SDS011;23498;50.958;3.124;2022-10-15T14:22:42;3.25;;;0.70;;
37655;SDS011;23498;50.958;3.124;2022-10-15T14:25:08;4.15;;;0.90;;
37655;SDS011;23498;50.958;3.124;2022-10-15T14:27:35;6.43;;;1.27;;
37655;SDS011;23498;50.958;3.124;2022-10-15T14:30:01;2.83;;;0.73;;
37655;SDS011;23498;50.958;3.124;2022-10-15T14:34:54;3.38;;;0.80;;
37655;SDS011;23498;50.958;3.124;2022-10-15T14:40:02;3.47;;;0.73;;
37655;SDS011;23498;50.958;3.124;2022-10-15T14:42:31;4.68;;;1.25;;
37655;SDS011;23498;50.958;3.124;2022-10-15T14:45:08;5.85;;;0.90;;
37655;SDS011;23498;50.958;3.124;2022-10-15T14:47:35;5.70;;;0.90;;
37655;SDS011;23498;50.958;3.124;2022-10-15T14:50:01;4.55;;;1.00;;
37655;SDS011;23498;50.958;3.124;2022-10-15T14:52:31;5.82;;;0.95;;
37655;SDS011;23498;50.958;3.124;2022-10-15T14:55:18;4.00;;;0.82;;
37655;SDS011;23498;50.958;3.124;2022-10-15T14:57:49;6.22;;;1.10;;
37655;SDS011;23498;50.958;3.124;2022-10-15T15:00:29;7.97;;;1.95;;
37655;SDS011;23498;50.958;3.124;2022-10-15T15:02:57;5.40;;;1.00;;
37655;SDS011;23498;50.958;3.124;2022-10-15T15:05:47;4.10;;;1.00;;
37655;SDS011;23498;50.958;3.124;2022-10-15T15:08:13;5.68;;;1.10;;
37655;SDS011;23498;50.958;3.124;2022-10-15T15:10:39;5.13;;;1.02;;
37655;SDS011;23498;50.958;3.124;2022-10-15T15:13:05;7.57;;;1.30;;
37655;SDS011;23498;50.958;3.124;2022-10-15T15:15:31;5.43;;;0.90;;
37655;SDS011;23498;50.958;3.124;2022-10-15T15:17:57;3.80;;;1.10;;
37655;SDS011;23498;50.958;3.124;2022-10-15T15:20:23;4.40;;;1.13;;
37655;SDS011;23498;50.958;3.124;2022-10-15T15:22:50;8.55;;;1.35;;
37655;SDS011;23498;50.958;3.124;2022-10-15T15:25:18;4.78;;;1.10;;
37655;SDS011;23498;50.958;3.124;2022-10-15T15:27:48;5.90;;;1.10;;
37655;SDS011;23498;50.958;3.124;2022-10-15T15:30:21;5.07;;;1.15;;
37655;SDS011;23498;50.958;3.124;2022-10-15T15:32:47;3.47;;;1.30;;
37655;SDS011;23498;50.958;3.124;2022-10-15T15:35:16;4.20;;;1.20;;
37655;SDS011;23498;50.958;3.124;2022-10-15T15:37:44;5.07;;;1.25;;
37655;SDS011;23498;50.958;3.124;2022-10-15T15:40:10;7.13;;;1.35;;
37655;SDS011;23498;50.958;3.124;2022-10-15T15:42:36;8.40;;;1.08;;
37655;SDS011;23498;50.958;3.124;2022-10-15T15:45:02;6.05;;;0.98;;
37655;SDS011;23498;50.958;3.124;2022-10-15T15:47:28;4.93;;;0.90;;
37655;SDS011;23498;50.958;3.124;2022-10-15T15:49:54;3.88;;;0.98;;
37655;SDS011;23498;50.958;3.124;2022-10-15T15:52:20;4.43;;;0.98;;
37655;SDS011;23498;50.958;3.124;2022-10-15T15:54:46;5.70;;;1.05;;
37655;SDS011;23498;50.958;3.124;2022-10-15T15:57:12;5.72;;;0.95;;
37655;SDS011;23498;50.958;3.124;2022-10-15T15:59:58;6.38;;;1.00;;
37655;SDS011;23498;50.958;3.124;2022-10-15T16:02:24;5.53;;;0.95;;
37655;SDS011;23498;50.958;3.124;2022-10-15T16:04:50;5.85;;;1.00;;
37655;SDS011;23498;50.958;3.124;2022-10-15T16:07:16;6.70;;;1.00;;
37655;SDS011;23498;50.958;3.124;2022-10-15T16:09:42;4.05;;;0.88;;
37655;SDS011;23498;50.958;3.124;2022-10-15T16:12:08;6.10;;;1.35;;
37655;SDS011;23498;50.958;3.124;2022-10-15T16:14:37;5.45;;;1.17;;
37655;SDS011;23498;50.958;3.124;2022-10-15T16:17:03;5.60;;;1.25;;
37655;SDS011;23498;50.958;3.124;2022-10-15T16:19:29;5.25;;;0.80;;
37655;SDS011;23498;50.958;3.124;2022-10-15T16:21:55;5.93;;;1.40;;
37655;SDS011;23498;50.958;3.124;2022-10-15T16:24:21;7.45;;;1.52;;
37655;SDS011;23498;50.958;3.124;2022-10-15T16:26:49;6.22;;;1.52;;
37655;SDS011;23498;50.958;3.124;2022-10-15T16:29:15;4.60;;;1.30;;
37655;SDS011;23498;50.958;3.124;2022-10-15T16:31:41;5.13;;;1.30;;
37655;SDS011;23498;50.958;3.124;2022-10-15T16:36:49;5.97;;;1.15;;
37655;SDS011;23498;50.958;3.124;2022-10-15T16:39:24;5.95;;;1.17;;
37655;SDS011;23498;50.958;3.124;2022-10-15T16:41:53;5.57;;;1.50;;
37655;SDS011;23498;50.958;3.124;2022-10-15T16:44:38;6.30;;;0.93;;
37655;SDS011;23498;50.958;3.124;2022-10-15T16:47:04;7.05;;;1.23;;
37655;SDS011;23498;50.958;3.124;2022-10-15T16:49:30;4.78;;;1.40;;
37655;SDS011;23498;50.958;3.124;2022-10-15T16:51:56;5.28;;;1.20;;
37655;SDS011;23498;50.958;3.124;2022-10-15T16:54:22;4.53;;;1.10;;
37655;SDS011;23498;50.958;3.124;2022-10-15T16:56:49;5.78;;;1.30;;
37655;SDS011;23498;50.958;3.124;2022-10-15T16:59:19;5.43;;;1.40;;
37655;SDS011;23498;50.958;3.124;2022-10-15T17:01:45;6.10;;;1.80;;
37655;SDS011;23498;50.958;3.124;2022-10-15T17:04:11;6.13;;;2.08;;
37655;SDS011;23498;50.958;3.124;2022-10-15T17:06:37;7.53;;;1.98;;
37655;SDS011;23498;50.958;3.124;2022-10-15T17:09:03;9.45;;;1.98;;
37655;SDS011;23498;50.958;3.124;2022-10-15T17:11:30;7.03;;;1.70;;
37655;SDS011;23498;50.958;3.124;2022-10-15T17:13:58;4.88;;;1.50;;
37655;SDS011;23498;50.958;3.124;2022-10-15T17:16:32;6.28;;;1.70;;
37655;SDS011;23498;50.958;3.124;2022-10-15T17:18:59;5.43;;;1.08;;
37655;SDS011;23498;50.958;3.124;2022-10-15T17:21:25;5.35;;;1.05;;
37655;SDS011;23498;50.958;3.124;2022-10-15T17:23:53;3.33;;;1.10;;
37655;SDS011;23498;50.958;3.124;2022-10-15T17:26:20;5.30;;;1.17;;
37655;SDS011;23498;50.958;3.124;2022-10-15T17:28:47;4.32;;;1.10;;